Time;durP1;ratioP1;P1;durP2;ratioP2;P2;SDS_P1;SDS_P2;PMS_P1;PMS_P2;Temp;Humidity;BMP_temperature;BMP_pressure;BME280_temperature;BME280_humidity;BME280_pressure;Samples;Min_cycle;Max_cycle;Signal;HPM_P1;HPM_P2
2024/04/15 00:01:34;;;;;;;9.40;5.00;;;;;;;-147.86;100.00;-17609.17;105661;1257;72518;-46
2024/04/15 00:04:01;;;;;;;12.20;4.00;;;;;;;-147.86;100.00;-17609.17;105614;1254;61905;-48
2024/04/15 00:06:30;;;;;;;10.50;3.80;;;;;;;-147.86;100.00;-17609.17;105601;1254;60408;-48
2024/04/15 00:08:58;;;;;;;16.70;4.20;;;;;;;-147.86;100.00;-17609.17;105643;1258;73585;-49
2024/04/15 00:11:24;;;;;;;8.10;3.30;;;;;;;-147.86;100.00;-17609.17;105619;1260;65502;-45
2024/04/15 00:13:52;;;;;;;5.10;2.70;;;;;;;-147.86;100.00;-17609.17;105662;1260;72522;-45
2024/04/15 00:16:19;;;;;;;7.10;2.00;;;;;;;-147.86;100.00;-17609.17;105622;1257;61905;-46
2024/04/15 00:18:46;;;;;;;6.40;2.10;;;;;;;-147.86;100.00;-17609.17;105647;1254;60440;-43
2024/04/15 00:21:12;;;;;;;5.00;2.20;;;;;;;-147.86;100.00;-17609.17;105679;1255;73690;-48
2024/04/15 00:23:39;;;;;;;6.30;2.10;;;;;;;-147.86;100.00;-17609.17;105629;1259;64674;-45
2024/04/15 00:26:06;;;;;;;11.00;2.00;;;;;;;-147.86;100.00;-17609.17;105661;1259;72615;-47
2024/04/15 00:28:33;;;;;;;4.00;1.90;;;;;;;-147.86;100.00;-17609.17;105703;1259;61716;-48
2024/04/15 00:31:01;;;;;;;5.90;2.50;;;;;;;-147.86;100.00;-17609.17;105664;1258;60318;-47
2024/04/15 00:33:28;;;;;;;9.30;3.50;;;;;;;-147.86;100.00;-17609.17;105680;1254;73702;-48
2024/04/15 00:35:55;;;;;;;4.60;3.60;;;;;;;-147.86;100.00;-17609.17;105638;1257;65472;-51
2024/04/15 00:38:22;;;;;;;4.40;3.60;;;;;;;-147.86;100.00;-17609.17;105638;1259;72647;-48
2024/04/15 00:40:49;;;;;;;6.20;4.20;;;;;;;-147.86;100.00;-17609.17;105622;1256;61162;-45
2024/04/15 00:43:16;;;;;;;13.70;4.50;;;;;;;-147.86;100.00;-17609.17;105639;1254;61333;-48
2024/04/15 00:45:43;;;;;;;8.40;3.90;;;;;;;-147.86;100.00;-17609.17;105603;1258;74601;-47
2024/04/15 00:48:14;;;;;;;9.10;4.00;;;;;;;-147.86;100.00;-17609.17;105664;1254;65461;-48
2024/04/15 00:50:44;;;;;;;6.10;3.10;;;;;;;-147.86;100.00;-17609.17;105632;1257;73048;-50
2024/04/15 00:53:12;;;;;;;7.70;3.30;;;;;;;-147.86;100.00;-17609.17;105757;1260;61493;-44
2024/04/15 00:55:38;;;;;;;4.10;2.90;;;;;;;-147.86;100.00;-17609.17;105696;1254;61247;-45
2024/04/15 00:58:05;;;;;;;6.50;2.20;;;;;;;-147.86;100.00;-17609.17;105627;1259;74612;-50
2024/04/15 01:00:32;;;;;;;1.60;1.50;;;;;;;-147.86;100.00;-17609.17;105700;1254;64706;-51
2024/04/15 01:03:00;;;;;;;1.80;1.40;;;;;;;-147.86;100.00;-17609.17;105854;1254;71504;-48
2024/04/15 01:05:26;;;;;;;4.70;1.80;;;;;;;-147.86;100.00;-17609.17;105643;1259;61212;-49
2024/04/15 01:07:53;;;;;;;3.60;1.50;;;;;;;-147.86;100.00;-17609.17;105826;1254;61285;-44
2024/04/15 01:10:20;;;;;;;6.70;1.40;;;;;;;-147.86;100.00;-17609.17;105661;1259;74639;-47
2024/04/15 01:12:47;;;;;;;5.00;1.00;;;;;;;-147.86;100.00;-17609.17;105863;1257;65473;-48
2024/04/15 01:15:14;;;;;;;1.90;1.30;;;;;;;-147.86;100.00;-17609.17;105895;1257;72723;-44
2024/04/15 01:17:42;;;;;;;1.90;1.40;;;;;;;-147.86;100.00;-17609.17;105813;1254;61237;-48
2024/04/15 01:20:09;;;;;;;4.50;1.20;;;;;;;-147.86;100.00;-17609.17;105870;1254;61346;-48
2024/04/15 01:22:37;;;;;;;1.80;1.10;;;;;;;-147.86;100.00;-17609.17;105865;1257;74630;-44
2024/04/15 01:25:04;;;;;;;2.70;1.40;;;;;;;-147.86;100.00;-17609.17;105848;1257;64825;-45
2024/04/15 01:27:32;;;;;;;2.00;1.70;;;;;;;-147.86;100.00;-17609.17;105848;1254;72598;-45
2024/04/15 01:29:59;;;;;;;3.30;1.70;;;;;;;-147.86;100.00;-17609.17;105723;1254;61148;-49
2024/04/15 01:32:25;;;;;;;8.60;2.70;;;;;;;-147.86;100.00;-17609.17;105810;1254;61250;-45
2024/04/15 01:34:52;;;;;;;5.00;2.20;;;;;;;-147.86;100.00;-17609.17;105842;1256;74705;-49
2024/04/15 01:37:19;;;;;;;8.10;3.10;;;;;;;-147.86;100.00;-17609.17;105831;1254;65420;-51
2024/04/15 01:39:46;;;;;;;8.10;2.80;;;;;;;-147.86;100.00;-17609.17;105833;1254;72661;-47
2024/04/15 01:42:14;;;;;;;2.30;2.10;;;;;;;-147.86;100.00;-17609.17;105811;1254;62208;-43
2024/04/15 01:44:40;;;;;;;1.90;1.70;;;;;;;-147.86;100.00;-17609.17;105809;1253;61234;-45
2024/04/15 01:47:08;;;;;;;2.60;1.40;;;;;;;-147.86;100.00;-17609.17;105698;1257;74665;-45
2024/04/15 01:49:34;;;;;;;3.80;1.50;;;;;;;-147.86;100.00;-17609.17;105825;1254;65279;-50
2024/04/15 01:52:01;;;;;;;2.30;1.40;;;;;;;-147.86;100.00;-17609.17;105812;1254;72479;-48
2024/04/15 01:54:28;;;;;;;1.20;1.10;;;;;;;-147.86;100.00;-17609.17;105805;1254;61268;-44
2024/04/15 01:56:56;;;;;;;3.70;1.50;;;;;;;-147.86;100.00;-17609.17;105832;1257;61266;-46
2024/04/15 01:59:23;;;;;;;2.30;1.20;;;;;;;-147.86;100.00;-17609.17;105809;1257;74695;-47
2024/04/15 02:01:50;;;;;;;3.80;1.40;;;;;;;-147.86;100.00;-17609.17;105780;1254;64629;-51
2024/04/15 02:04:17;;;;;;;3.00;1.40;;;;;;;-147.86;100.00;-17609.17;105808;1254;73164;-45
2024/04/15 02:06:45;;;;;;;1.40;1.20;;;;;;;-147.86;100.00;-17609.17;105758;1254;61966;-47
2024/04/15 02:09:11;;;;;;;2.40;1.30;;;;;;;-147.86;100.00;-17609.17;105935;1254;61298;-47
2024/04/15 02:11:38;;;;;;;1.90;1.40;;;;;;;-147.86;100.00;-17609.17;105790;1254;74616;-47
2024/04/15 02:14:05;;;;;;;4.70;1.70;;;;;;;-147.86;100.00;-17609.17;105789;1254;63667;-47
2024/04/15 02:16:32;;;;;;;2.80;1.20;;;;;;;-147.86;100.00;-17609.17;105782;1254;72681;-46
2024/04/15 02:19:00;;;;;;;2.80;1.40;;;;;;;-147.86;100.00;-17609.17;105807;1257;61974;-49
2024/04/15 02:21:27;;;;;;;2.30;1.40;;;;;;;-147.86;100.00;-17609.17;105822;1252;61279;-45
2024/04/15 02:23:54;;;;;;;2.20;1.20;;;;;;;-147.86;100.00;-17609.17;105792;1254;74613;-48
2024/04/15 02:26:21;;;;;;;3.90;1.30;;;;;;;-147.86;100.00;-17609.17;105858;1254;64606;-50
2024/04/15 02:28:47;;;;;;;8.20;1.50;;;;;;;-147.86;100.00;-17609.17;105849;1254;72440;-49
2024/04/15 02:31:14;;;;;;;2.80;1.70;;;;;;;-147.86;100.00;-17609.17;105804;1257;61132;-46
2024/04/15 02:33:41;;;;;;;5.70;1.30;;;;;;;-147.86;100.00;-17609.17;105795;1253;61250;-46
2024/04/15 02:36:08;;;;;;;4.70;1.40;;;;;;;-147.86;100.00;-17609.17;105654;1256;74617;-47
2024/04/15 02:38:35;;;;;;;5.10;1.20;;;;;;;-147.86;100.00;-17609.17;105642;1254;66538;-45
2024/04/15 02:41:02;;;;;;;6.60;1.60;;;;;;;-147.86;100.00;-17609.17;105681;1254;72476;-48
2024/04/15 02:43:29;;;;;;;3.40;1.80;;;;;;;-147.86;100.00;-17609.17;105757;1257;61327;-46
2024/04/15 02:45:56;;;;;;;4.30;1.60;;;;;;;-147.86;100.00;-17609.17;105762;1254;61238;-50
2024/04/15 02:48:23;;;;;;;2.60;1.70;;;;;;;-147.86;100.00;-17609.17;105789;1256;74769;-51
2024/04/15 02:50:49;;;;;;;4.30;2.80;;;;;;;-147.86;100.00;-17609.17;105824;1254;65562;-46
2024/04/15 02:53:16;;;;;;;5.70;3.10;;;;;;;-147.86;100.00;-17609.17;105807;1257;72884;-47
2024/04/15 02:55:43;;;;;;;3.80;3.40;;;;;;;-147.86;100.00;-17609.17;105859;1254;61246;-49
2024/04/15 02:58:10;;;;;;;5.50;4.20;;;;;;;-147.86;100.00;-17609.17;105796;1254;61349;-46
2024/04/15 03:00:37;;;;;;;5.00;4.00;;;;;;;-147.86;100.00;-17609.17;105754;1257;74497;-45
2024/04/15 03:03:04;;;;;;;8.00;4.50;;;;;;;-147.86;100.00;-17609.17;105836;1257;65358;-44
2024/04/15 03:05:33;;;;;;;5.40;3.90;;;;;;;-147.86;100.00;-17609.17;105804;1254;72614;-43
2024/04/15 03:07:59;;;;;;;5.60;4.50;;;;;;;-147.86;100.00;-17609.17;105823;1254;61851;-46
2024/04/15 03:10:26;;;;;;;7.80;4.50;;;;;;;-147.86;100.00;-17609.17;105842;1254;61214;-47
2024/04/15 03:12:54;;;;;;;5.00;4.50;;;;;;;-147.86;100.00;-17609.17;105826;1256;74478;-49
2024/04/15 03:15:21;;;;;;;5.90;5.30;;;;;;;-147.86;100.00;-17609.17;105853;1256;65525;-44
2024/04/15 03:17:50;;;;;;;5.10;4.60;;;;;;;-147.86;100.00;-17609.17;105793;1254;72651;-44
2024/04/15 03:20:17;;;;;;;8.30;4.60;;;;;;;-147.86;100.00;-17609.17;105820;1254;61355;-45
2024/04/15 03:22:50;;;;;;;12.60;4.60;;;;;;;-147.86;100.00;-17609.17;105816;1253;61289;-46
2024/04/15 03:25:17;;;;;;;6.40;4.50;;;;;;;-147.86;100.00;-17609.17;105760;1257;74332;-44
2024/04/15 03:27:48;;;;;;;10.10;4.90;;;;;;;-147.86;100.00;-17609.17;105825;1257;65486;-47
2024/04/15 03:30:15;;;;;;;8.50;6.10;;;;;;;-147.86;100.00;-17609.17;105832;1253;72561;-47
2024/04/15 03:32:42;;;;;;;11.10;6.70;;;;;;;-147.86;100.00;-17609.17;105791;1254;61694;-47
2024/04/15 03:35:14;;;;;;;9.90;7.00;;;;;;;-147.86;100.00;-17609.17;105821;1254;61202;-47
2024/04/15 03:37:41;;;;;;;9.00;7.50;;;;;;;-147.86;100.00;-17609.17;105864;1257;74493;-50
2024/04/15 03:40:10;;;;;;;14.60;8.30;;;;;;;-147.86;100.00;-17609.17;105794;1254;64581;-49
2024/04/15 03:42:37;;;;;;;10.30;8.10;;;;;;;-147.86;100.00;-17609.17;105829;1254;72646;-47
2024/04/15 03:45:06;;;;;;;17.10;9.20;;;;;;;-147.86;100.00;-17609.17;105692;1259;61352;-51
2024/04/15 03:47:33;;;;;;;20.90;7.80;;;;;;;-147.86;100.00;-17609.17;105879;1253;61214;-49
2024/04/15 03:50:00;;;;;;;11.00;6.20;;;;;;;-147.86;100.00;-17609.17;105775;1256;74595;-44
2024/04/15 03:52:26;;;;;;;10.00;5.20;;;;;;;-147.86;100.00;-17609.17;105751;1254;65786;-44
2024/04/15 03:54:53;;;;;;;9.30;5.30;;;;;;;-147.86;100.00;-17609.17;105790;1253;72593;-48
2024/04/15 03:57:20;;;;;;;5.80;4.60;;;;;;;-147.86;100.00;-17609.17;105848;1258;61244;-47
2024/04/15 03:59:47;;;;;;;7.30;4.60;;;;;;;-147.86;100.00;-17609.17;105787;1253;61223;-49
2024/04/15 04:02:13;;;;;;;9.90;4.10;;;;;;;-147.86;100.00;-17609.17;105752;1255;74556;-48
2024/04/15 04:04:40;;;;;;;5.20;3.30;;;;;;;-147.86;100.00;-17609.17;105742;1254;65390;-47
2024/04/15 04:07:08;;;;;;;8.10;4.10;;;;;;;-147.86;100.00;-17609.17;105880;1254;72574;-49
2024/04/15 04:09:38;;;;;;;5.20;3.80;;;;;;;-147.86;100.00;-17609.17;105767;1253;61218;-51
2024/04/15 04:12:05;;;;;;;13.60;5.20;;;;;;;-147.86;100.00;-17609.17;105789;1254;61327;-49
2024/04/15 04:14:33;;;;;;;5.60;4.30;;;;;;;-147.86;100.00;-17609.17;105578;1254;74498;-50
2024/04/15 04:17:01;;;;;;;6.70;4.30;;;;;;;-147.86;100.00;-17609.17;105581;1254;65490;-49
2024/04/15 04:19:33;;;;;;;7.40;4.80;;;;;;;-147.86;100.00;-17609.17;105642;1257;72636;-44
2024/04/15 04:22:00;;;;;;;10.60;5.80;;;;;;;-147.86;100.00;-17609.17;105821;1254;61918;-51
2024/04/15 04:24:29;;;;;;;7.40;4.80;;;;;;;-147.86;100.00;-17609.17;105786;1256;61327;-46
2024/04/15 04:26:56;;;;;;;12.00;4.80;;;;;;;-147.86;100.00;-17609.17;105791;1253;74495;-54
2024/04/15 04:29:23;;;;;;;7.90;5.10;;;;;;;-147.86;100.00;-17609.17;105858;1256;64538;-47
2024/04/15 04:31:50;;;;;;;6.40;4.40;;;;;;;-147.86;100.00;-17609.17;105772;1254;72784;-49
2024/04/15 04:34:18;;;;;;;8.60;5.20;;;;;;;-147.86;100.00;-17609.17;105882;1254;61141;-48
2024/04/15 04:36:45;;;;;;;8.60;4.40;;;;;;;-147.86;100.00;-17609.17;105762;1254;61323;-46
2024/04/15 04:39:12;;;;;;;5.30;3.80;;;;;;;-147.86;100.00;-17609.17;105759;1256;74605;-46
2024/04/15 04:41:39;;;;;;;11.70;5.50;;;;;;;-147.86;100.00;-17609.17;105777;1253;65510;-48
2024/04/15 04:44:06;;;;;;;7.80;5.10;;;;;;;-147.86;100.00;-17609.17;105866;1256;72455;-49
2024/04/15 04:46:33;;;;;;;9.30;4.80;;;;;;;-147.86;100.00;-17609.17;105815;1253;61167;-50
2024/04/15 04:49:00;;;;;;;7.90;4.50;;;;;;;-147.86;100.00;-17609.17;105772;1254;61231;-50
2024/04/15 04:51:28;;;;;;;6.00;4.30;;;;;;;-147.86;100.00;-17609.17;105798;1253;74696;-47
2024/04/15 04:53:55;;;;;;;6.10;3.60;;;;;;;-147.86;100.00;-17609.17;105785;1254;65488;-46
2024/04/15 04:56:22;;;;;;;5.80;3.70;;;;;;;-147.86;100.00;-17609.17;105809;1254;72956;-46
2024/04/15 04:58:49;;;;;;;4.70;4.30;;;;;;;-147.86;100.00;-17609.17;105761;1257;61151;-47
2024/04/15 05:01:16;;;;;;;5.10;4.10;;;;;;;-147.86;100.00;-17609.17;105786;1254;61245;-48
2024/04/15 05:03:45;;;;;;;8.50;4.10;;;;;;;-147.86;100.00;-17609.17;105753;1256;74607;-45
2024/04/15 05:06:13;;;;;;;4.70;3.50;;;;;;;-147.86;100.00;-17609.17;105721;1254;65526;-48
2024/04/15 05:08:40;;;;;;;6.30;3.90;;;;;;;-147.86;100.00;-17609.17;105763;1256;71283;-46
2024/04/15 05:11:07;;;;;;;3.80;3.30;;;;;;;-147.86;100.00;-17609.17;105769;1253;61247;-48
2024/04/15 05:13:34;;;;;;;6.10;3.80;;;;;;;-147.86;100.00;-17609.17;105787;1253;61272;-47
2024/04/15 05:16:06;;;;;;;4.00;3.40;;;;;;;-147.86;100.00;-17609.17;105763;1257;74949;-48
2024/04/15 05:18:33;;;;;;;5.70;3.40;;;;;;;-147.86;100.00;-17609.17;105756;1254;66915;-45
2024/04/15 05:21:00;;;;;;;5.40;3.70;;;;;;;-147.86;100.00;-17609.17;105742;1254;73112;-48
2024/04/15 05:23:28;;;;;;;9.40;3.90;;;;;;;-147.86;100.00;-17609.17;105745;1253;61238;-50
2024/04/15 05:26:00;;;;;;;5.20;3.70;;;;;;;-147.86;100.00;-17609.17;105800;1254;61241;-47
2024/04/15 05:28:27;;;;;;;7.40;3.30;;;;;;;-147.86;100.00;-17609.17;105771;1257;74912;-45
2024/04/15 05:30:55;;;;;;;5.10;3.10;;;;;;;-147.86;100.00;-17609.17;105797;1257;64712;-46
2024/04/15 05:33:22;;;;;;;4.30;2.90;;;;;;;-147.86;100.00;-17609.17;105922;1253;72951;-51
2024/04/15 05:35:49;;;;;;;3.50;2.70;;;;;;;-147.86;100.00;-17609.17;105689;1257;61139;-47
2024/04/15 05:38:16;;;;;;;7.60;2.30;;;;;;;-147.86;100.00;-17609.17;105745;1254;61289;-48
2024/04/15 05:40:43;;;;;;;8.40;2.50;;;;;;;-147.86;100.00;-17609.17;105790;1253;73812;-48
2024/04/15 05:43:11;;;;;;;2.00;1.80;;;;;;;-147.86;100.00;-17609.17;105756;1254;64841;-49
2024/04/15 05:45:38;;;;;;;4.00;2.60;;;;;;;-147.86;100.00;-17609.17;105786;1254;73306;-46
2024/04/15 05:48:06;;;;;;;4.90;1.90;;;;;;;-147.86;100.00;-17609.17;105779;1254;61344;-47
2024/04/15 05:50:33;;;;;;;4.00;2.30;;;;;;;-147.86;100.00;-17609.17;105782;1257;61324;-46
2024/04/15 05:53:00;;;;;;;4.60;2.10;;;;;;;-147.86;100.00;-17609.17;105774;1254;73561;-48
2024/04/15 05:55:27;;;;;;;3.20;1.90;;;;;;;-147.86;100.00;-17609.17;105777;1257;66081;-45
2024/04/15 05:57:54;;;;;;;3.10;2.00;;;;;;;-147.86;100.00;-17609.17;105730;1254;72355;-50
2024/04/15 06:00:21;;;;;;;3.20;2.00;;;;;;;-147.86;100.00;-17609.17;105735;1253;61228;-48
2024/04/15 06:02:48;;;;;;;4.90;1.90;;;;;;;-147.86;100.00;-17609.17;105783;1254;61260;-45
2024/04/15 06:05:15;;;;;;;4.90;2.30;;;;;;;-147.86;100.00;-17609.17;105711;1254;75846;-50
2024/04/15 06:07:42;;;;;;;2.80;1.90;;;;;;;-147.86;100.00;-17609.17;105754;1256;64945;-45
2024/04/15 06:10:12;;;;;;;5.30;2.00;;;;;;;-147.86;100.00;-17609.17;105716;1254;73023;-50
2024/04/15 06:12:40;;;;;;;4.70;1.60;;;;;;;-147.86;100.00;-17609.17;105744;1254;61148;-46
2024/04/15 06:15:07;;;;;;;5.50;2.10;;;;;;;-147.86;100.00;-17609.17;105899;1253;61225;-48
2024/04/15 06:17:34;;;;;;;3.90;1.90;;;;;;;-147.86;100.00;-17609.17;105835;1254;74942;-46
2024/04/15 06:20:01;;;;;;;5.60;2.00;;;;;;;-147.86;100.00;-17609.17;105729;1256;65569;-48
2024/04/15 06:22:29;;;;;;;3.50;1.70;;;;;;;-147.86;100.00;-17609.17;105775;1254;72653;-46
2024/04/15 06:24:56;;;;;;;1.70;1.60;;;;;;;-147.86;100.00;-17609.17;105738;1257;61217;-47
2024/04/15 06:27:23;;;;;;;3.10;1.90;;;;;;;-147.86;100.00;-17609.17;105779;1254;61208;-44
2024/04/15 06:29:50;;;;;;;2.90;1.30;;;;;;;-147.86;100.00;-17609.17;105882;1254;76054;-47
2024/04/15 06:32:17;;;;;;;10.60;2.30;;;;;;;-147.86;100.00;-17609.17;105752;1257;65429;-48
2024/04/15 06:34:44;;;;;;;3.90;1.60;;;;;;;-147.86;100.00;-17609.17;105767;1254;73185;-48
2024/04/15 06:37:10;;;;;;;7.30;2.20;;;;;;;-147.86;100.00;-17609.17;105780;1257;61195;-48
2024/04/15 06:39:37;;;;;;;4.40;2.00;;;;;;;-147.86;100.00;-17609.17;105819;1254;61326;-47
2024/04/15 06:42:04;;;;;;;6.30;1.90;;;;;;;-147.86;100.00;-17609.17;105689;1254;75946;-48
2024/04/15 06:44:33;;;;;;;7.30;1.90;;;;;;;-147.86;100.00;-17609.17;105749;1253;64820;-48
2024/04/15 06:47:01;;;;;;;2.50;2.10;;;;;;;-147.86;100.00;-17609.17;105783;1253;72885;-47
2024/04/15 06:49:28;;;;;;;4.10;2.30;;;;;;;-147.86;100.00;-17609.17;105745;1254;61261;-45
2024/04/15 06:51:55;;;;;;;7.60;2.20;;;;;;;-147.86;100.00;-17609.17;105731;1254;61288;-47
2024/04/15 06:54:22;;;;;;;9.90;2.40;;;;;;;-147.86;100.00;-17609.17;105747;1254;73894;-48
2024/04/15 06:56:50;;;;;;;31.60;3.10;;;;;;;-147.86;100.00;-17609.17;105747;1257;65668;-46
2024/04/15 06:59:17;;;;;;;14.60;3.20;;;;;;;-147.86;100.00;-17609.17;105774;1254;72897;-48
2024/04/15 07:01:45;;;;;;;25.10;3.10;;;;;;;-147.86;100.00;-17609.17;105745;1257;61582;-51
2024/04/15 07:04:12;;;;;;;29.70;4.20;;;;;;;-147.86;100.00;-17609.17;105746;1254;61275;-49
2024/04/15 07:06:40;;;;;;;7.00;3.10;;;;;;;-147.86;100.00;-17609.17;105804;1254;73790;-50
2024/04/15 07:09:07;;;;;;;19.30;4.00;;;;;;;-147.86;100.00;-17609.17;105799;1254;65730;-49
2024/04/15 07:11:34;;;;;;;28.80;3.80;;;;;;;-147.86;100.00;-17609.17;105736;1254;71973;-48
2024/04/15 07:14:01;;;;;;;50.50;5.30;;;;;;;-147.86;100.00;-17609.17;105739;1254;61887;-50
2024/04/15 07:16:28;;;;;;;14.20;4.10;;;;;;;-147.86;100.00;-17609.17;105793;1254;61228;-49
2024/04/15 07:18:55;;;;;;;5.50;3.10;;;;;;;-147.86;100.00;-17609.17;105763;1257;74829;-45
2024/04/15 07:21:25;;;;;;;6.90;3.60;;;;;;;-147.86;100.00;-17609.17;105810;1257;66138;-45
2024/04/15 07:23:52;;;;;;;6.90;3.80;;;;;;;-147.86;100.00;-17609.17;105859;1253;72932;-48
2024/04/15 07:26:19;;;;;;;5.00;3.60;;;;;;;-147.86;100.00;-17609.17;105734;1258;61135;-45
2024/04/15 07:28:47;;;;;;;10.00;4.10;;;;;;;-147.86;100.00;-17609.17;105786;1254;61326;-52
2024/04/15 07:31:14;;;;;;;4.30;3.30;;;;;;;-147.86;100.00;-17609.17;105866;1256;74887;-45
2024/04/15 07:33:41;;;;;;;38.90;5.10;;;;;;;-147.86;100.00;-17609.17;105805;1254;65312;-46
2024/04/15 07:36:08;;;;;;;88.20;7.00;;;;;;;-147.86;100.00;-17609.17;105776;1254;72823;-45
2024/04/15 07:38:35;;;;;;;3.80;3.30;;;;;;;-147.86;100.00;-17609.17;105805;1253;61689;-54
2024/04/15 07:41:03;;;;;;;49.40;6.00;;;;;;;-147.86;100.00;-17609.17;105842;1253;61326;-47
2024/04/15 07:43:30;;;;;;;65.60;7.40;;;;;;;-147.86;100.00;-17609.17;105808;1256;73937;-47
2024/04/15 07:45:57;;;;;;;26.40;5.10;;;;;;;-147.86;100.00;-17609.17;105794;1254;65437;-47
2024/04/15 07:48:25;;;;;;;13.90;3.50;;;;;;;-147.86;100.00;-17609.17;105871;1254;73758;-47
2024/04/15 07:50:54;;;;;;;5.60;3.10;;;;;;;-147.86;100.00;-17609.17;105745;1256;61151;-48
2024/04/15 07:53:21;;;;;;;38.30;5.00;;;;;;;-147.86;100.00;-17609.17;105795;1254;61459;-50
2024/04/15 07:55:48;;;;;;;5.10;3.30;;;;;;;-147.86;100.00;-17609.17;105758;1257;76614;-44
2024/04/15 07:58:15;;;;;;;7.70;3.10;;;;;;;-147.86;100.00;-17609.17;105825;1256;65075;-50
2024/04/15 08:00:43;;;;;;;15.00;3.30;;;;;;;-147.86;100.00;-17609.17;105793;1254;72457;-51
2024/04/15 08:03:10;;;;;;;3.90;2.80;;;;;;;-147.86;100.00;-17609.17;105875;1257;61562;-49
2024/04/15 08:05:38;;;;;;;5.20;3.10;;;;;;;-147.86;100.00;-16571.26;105807;1254;61206;-48
2024/04/15 08:08:06;;;;;;;4.30;2.70;;;;;;;-147.86;96.86;-6486.47;105780;1252;74812;-48
2024/04/15 08:10:33;;;;;;;18.10;3.00;;;;;;;-147.86;95.05;7540.64;105810;1254;65077;-46
2024/04/15 08:13:00;;;;;;;5.80;2.40;;;;;;;-147.86;93.90;14898.95;105823;1253;72962;-49
2024/04/15 08:15:27;;;;;;;3.00;2.30;;;;;;;-147.86;94.09;21870.57;105787;1257;61154;-52
2024/04/15 08:17:54;;;;;;;8.70;2.30;;;;;;;-147.86;94.83;22028.05;105827;1254;61244;-47
2024/04/15 08:20:22;;;;;;;2.10;2.00;;;;;;;-147.86;93.89;27519.79;105786;1258;74842;-49
2024/04/15 08:22:49;;;;;;;7.20;2.30;;;;;;;-147.86;92.76;31729.51;105806;1257;65688;-47
2024/04/15 08:25:17;;;;;;;5.00;2.40;;;;;;;-147.86;91.66;36017.28;105769;1254;73193;-49
2024/04/15 08:27:44;;;;;;;5.70;2.50;;;;;;;-147.86;92.03;37746.34;105820;1257;61214;-48
2024/04/15 08:30:11;;;;;;;5.10;2.30;;;;;;;-147.86;90.55;39162.93;105635;1254;61105;-47
2024/04/15 08:32:41;;;;;;;8.00;2.60;;;;;;;-147.86;89.83;40750.23;105749;1257;75815;-48
2024/04/15 08:35:08;;;;;;;5.10;2.60;;;;;;;-147.86;88.31;41713.44;105725;1256;64704;-51
2024/04/15 08:37:35;;;;;;;10.30;2.50;;;;;;;-147.86;88.74;42870.64;105803;1254;72895;-43
2024/04/15 08:40:04;;;;;;;5.10;2.20;;;;;;;-147.86;90.14;42799.77;105809;1257;61164;-51
2024/04/15 08:42:45;;;;;;;6.80;2.90;;;;;;;-147.86;88.78;43146.70;105813;1254;61545;-51
2024/04/15 08:45:23;;;;;;;5.40;2.70;;;;;;;-147.86;89.99;43015.13;105578;1257;471380;-54
2024/04/15 08:50:51;;;;;;;5.50;2.10;;;;;;;-147.86;86.63;44400.01;102184;1291;601177;-49
2024/04/15 08:53:19;;;;;;;4.60;2.00;;;;;;;-147.86;84.33;44351.39;104849;1269;59835;-48
2024/04/15 08:55:46;;;;;;;5.30;2.50;;;;;;;-147.86;81.59;46635.18;105113;1267;60628;-49
2024/04/15 08:58:15;;;;;;;3.70;2.00;;;;;;;-147.86;82.68;47129.80;105075;1269;74266;-50
2024/04/15 09:00:44;;;;;;;4.40;2.50;;;;;;;-147.86;83.63;47275.61;105021;1269;64097;-48
2024/04/15 09:03:11;;;;;;;3.20;2.80;;;;;;;-147.86;79.74;47386.55;104764;1270;243625;-48
2024/04/15 09:05:39;;;;;;;7.20;2.80;;;;;;;-147.86;77.16;47599.80;105224;1267;60622;-50
2024/04/15 09:08:06;;;;;;;6.30;2.10;;;;;;;-147.86;77.93;47828.35;105199;1264;59612;-49
2024/04/15 09:10:34;;;;;;;3.30;2.20;;;;;;;-147.86;78.08;47942.04;105217;1263;73202;-47
2024/04/15 09:13:01;;;;;;;8.60;2.30;;;;;;;-147.86;77.59;48035.34;105226;1267;66086;-47
2024/04/15 09:15:28;;;;;;;5.50;2.70;;;;;;;-147.86;77.29;48098.07;105232;1264;73231;-52
2024/04/15 09:17:55;;;;;;;13.90;3.40;;;;;;;-147.86;75.30;48158.06;105218;1267;60533;-49
2024/04/15 09:20:23;;;;;;;5.50;2.70;;;;;;;-147.86;74.95;48245.10;105211;1264;61780;-48
2024/04/15 09:23:11;;;;;;;2.60;2.40;;;;;;;-147.86;74.94;48315.28;104980;1269;74195;-47
2024/04/15 09:25:38;;;;;;;4.80;2.30;;;;;;;-147.86;76.06;48372.92;105237;1267;64917;-47
2024/04/15 09:28:05;;;;;;;5.90;2.40;;;;;;;-147.86;73.81;48367.43;105207;1264;72896;-51
2024/04/15 09:30:32;;;;;;;6.30;2.50;;;;;;;-147.86;73.58;48392.92;105211;1264;61144;-52
2024/04/15 09:33:00;;;;;;;3.60;1.70;;;;;;;-147.86;69.46;48342.73;105236;1264;60453;-51
2024/04/15 09:35:27;;;;;;;3.40;2.60;;;;;;;-147.86;70.23;48358.02;105268;1267;73570;-48
2024/04/15 09:37:55;;;;;;;5.80;2.70;;;;;;;-147.86;71.17;48370.18;105247;1269;65026;-50
2024/04/15 09:40:25;;;;;;;10.20;2.50;;;;;;;-147.86;70.42;48306.26;105148;1264;72938;-47
2024/04/15 09:42:54;;;;;;;6.10;2.60;;;;;;;-147.86;71.04;48324.30;105216;1267;60437;-47
2024/04/15 09:45:21;;;;;;;5.90;2.50;;;;;;;-147.86;70.57;48312.54;105238;1263;60546;-52
2024/04/15 09:47:51;;;;;;;5.70;2.50;;;;;;;-147.86;68.30;48266.66;105633;1258;74307;-46
2024/04/15 09:50:20;;;;;;;6.50;2.50;;;;;;;-147.86;67.41;48236.09;105603;1260;66107;-51
2024/04/15 09:52:56;;;;;;;7.20;2.40;;;;;;;-147.86;68.52;48240.40;105604;1258;72665;-45
2024/04/15 09:55:33;;;;;;;6.60;2.50;;;;;;;-147.86;69.49;48274.90;105615;1260;60517;-50
2024/04/15 09:58:02;;;;;;;3.50;2.30;;;;;;;-147.86;68.18;48263.53;105696;1257;61719;-49
2024/04/15 10:00:29;;;;;;;5.00;2.70;;;;;;;-147.86;66.12;48270.20;105571;1260;75217;-49
2024/04/15 10:03:07;;;;;;;5.10;2.40;;;;;;;-147.86;62.64;48228.24;105608;1260;64968;-45
2024/04/15 10:05:42;;;;;;;5.60;2.30;;;;;;;-147.86;58.80;48180.41;105567;1263;71686;-48
2024/04/15 10:08:09;;;;;;;3.50;2.30;;;;;;;-147.86;58.87;48145.51;105615;1257;60409;-49
2024/04/15 10:10:36;;;;;;;8.10;2.30;;;;;;;-147.86;58.31;48137.68;105607;1258;60434;-47
2024/04/15 10:13:04;;;;;;;6.10;2.30;;;;;;;-147.86;60.66;48138.07;105477;1259;75074;-48
2024/04/15 10:15:38;;;;;;;;;;;;;;;-147.86;62.47;48165.12;105601;1257;66092;-48
2024/04/15 10:18:08;;;;;;;7.10;2.30;;;;;;;-147.86;60.38;48122.77;105598;1257;72917;-51
2024/04/15 10:20:39;;;;;;;7.70;3.00;;;;;;;-147.86;65.47;48148.26;105645;1257;60525;-52
2024/04/15 10:23:08;;;;;;;3.50;2.30;;;;;;;-147.86;66.20;48176.49;105640;1257;60496;-51
2024/04/15 10:25:35;;;;;;;8.20;2.30;;;;;;;-147.86;63.79;48177.66;105651;1260;74013;-51
2024/04/15 10:28:06;;;;;;;8.50;2.40;;;;;;;-147.86;61.35;48174.92;105588;1261;64492;-47
2024/04/15 10:30:33;;;;;;;6.90;2.50;;;;;;;-147.86;59.91;48151.00;105629;1257;72923;-49
2024/04/15 10:33:06;;;;;;;13.10;2.30;;;;;;;-147.86;58.30;48132.18;105592;1261;61273;-49
2024/04/15 10:35:35;;;;;;;6.50;2.40;;;;;;;-147.86;58.62;48139.24;105629;1257;60639;-48
2024/04/15 10:38:04;;;;;;;14.20;2.60;;;;;;;-147.86;58.72;48174.53;105590;1261;74069;-50
2024/04/15 10:40:40;;;;;;;12.10;2.60;;;;;;;-147.86;57.74;48224.32;105503;1262;65835;-51
2024/04/15 10:43:07;;;;;;;5.40;2.20;;;;;;;-147.86;55.45;48237.65;105614;1261;74089;-44
2024/04/15 10:45:34;;;;;;;7.30;2.00;;;;;;;-147.86;48.92;48182.37;105587;1261;61635;-47
2024/04/15 10:48:01;;;;;;;8.30;2.10;;;;;;;-147.86;47.92;48125.52;105586;1257;61584;-50
2024/04/15 10:50:29;;;;;;;8.40;2.20;;;;;;;-147.86;47.16;48134.14;105624;1260;74223;-46
2024/04/15 10:52:56;;;;;;;19.50;2.70;;;;;;;-147.86;46.63;48074.55;105597;1261;65861;-49
2024/04/15 10:55:23;;;;;;;10.60;2.80;;;;;;;-147.86;46.41;48076.51;105909;1254;72975;-50
2024/04/15 10:57:50;;;;;;;7.00;1.80;;;;;;;-147.86;44.26;48065.93;105889;1256;60344;-50
2024/04/15 11:00:19;;;;;;;5.70;1.60;;;;;;;-147.86;43.11;48057.69;105930;1253;60571;-50
2024/04/15 11:02:50;;;;;;;10.00;1.90;;;;;;;-147.86;43.03;48022.02;105888;1254;73122;-51